Time;durP1;ratioP1;P1;durP2;ratioP2;P2;SDS_P1;SDS_P2;PMS_P1;PMS_P2;Temp;Humidity;BMP_temperature;BMP_pressure;BME280_temperature;BME280_humidity;BME280_pressure;Samples;Min_cycle;Max_cycle;Signal;HPM_P1;HPM_P2
2022/01/24 00:01:52;;;;;;;18.92;11.50;;;;;;;4.89;100.00;103510.03;4896225;29;20392;-66
2022/01/24 00:04:18;;;;;;;20.95;11.52;;;;;;;4.89;100.00;103510.03;4896217;29;20164;-66
2022/01/24 00:06:43;;;;;;;22.30;12.85;;;;;;;4.88;100.00;103511.78;4876767;29;20040;-66
2022/01/24 00:09:11;;;;;;;19.92;11.50;;;;;;;4.89;100.00;103510.03;4895757;29;20040;-66
2022/01/24 00:28:12;;;;;;;14.43;9.75;;;;;;;4.86;100.00;103512.59;4896261;29;20036;-67
2022/01/24 00:30:38;;;;;;;13.52;9.50;;;;;;;4.86;100.00;103515.22;4895628;29;20043;-67
2022/01/24 00:33:03;;;;;;;13.63;9.68;;;;;;;4.84;100.00;103515.19;4896363;29;20464;-66
2022/01/24 00:35:29;;;;;;;13.13;9.20;;;;;;;4.84;100.00;103509.03;4895974;29;20038;-66
2022/01/24 00:38:00;;;;;;;13.55;9.73;;;;;;;4.84;100.00;103503.78;4895387;29;20099;-66
2022/01/24 00:40:28;;;;;;;13.73;9.60;;;;;;;4.83;100.00;103515.13;4893858;29;20493;-66
2022/01/24 00:42:58;;;;;;;14.10;9.10;;;;;;;4.81;100.00;103516.84;4896141;29;20032;-66
2022/01/24 00:55:44;;;;;;;11.82;8.50;;;;;;;4.77;100.00;103508.03;4895487;29;20061;-66
2022/01/24 00:58:09;;;;;;;12.90;8.40;;;;;;;4.74;100.00;103511.47;4895651;29;20043;-66
2022/01/24 01:00:35;;;;;;;12.25;8.80;;;;;;;4.73;100.00;103509.69;4888001;29;20036;-66
2022/01/24 01:03:01;;;;;;;12.60;8.68;;;;;;;4.72;100.00;103514.91;4881296;29;20108;-66
2022/01/24 01:18:47;;;;;;;11.10;7.97;;;;;;;4.66;100.00;103502.53;4891770;29;20040;-67
2022/01/24 01:21:16;;;;;;;11.10;8.15;;;;;;;4.65;100.00;103492.00;4894280;29;20052;-66
2022/01/24 01:23:48;;;;;;;12.02;7.97;;;;;;;4.64;100.00;103493.75;4894014;29;20094;-66
2022/01/24 01:26:31;;;;;;;11.05;7.68;;;;;;;4.62;100.00;103493.72;4893788;29;20047;-67
2022/01/24 01:29:06;;;;;;;11.75;7.85;;;;;;;4.61;100.00;103496.31;4894814;29;20271;-66
2022/01/24 01:34:26;;;;;;;10.10;7.43;;;;;;;4.58;100.00;103486.63;4895302;29;20270;-66
2022/01/24 01:40:09;;;;;;;9.18;7.50;;;;;;;4.56;100.00;103490.06;4894205;29;20107;-66
2022/01/24 01:55:53;;;;;;;10.32;7.65;;;;;;;4.55;100.00;103491.81;4894289;29;20036;-66
2022/01/24 01:58:21;;;;;;;10.55;7.68;;;;;;;4.55;100.00;103493.53;4894372;29;20032;-66
2022/01/24 02:00:55;;;;;;;13.05;8.10;;;;;;;4.54;100.00;103491.78;4894338;29;20046;-66
2022/01/24 02:03:22;;;;;;;10.63;7.57;;;;;;;4.53;100.00;103484.75;4887265;29;20808;-66
2022/01/24 02:05:48;;;;;;;10.30;7.93;;;;;;;4.53;100.00;103482.13;4887161;29;20487;-66
2022/01/24 02:08:14;;;;;;;12.02;7.95;;;;;;;4.51;100.00;103475.97;4893357;29;20039;-66
2022/01/24 02:10:42;;;;;;;11.50;7.60;;;;;;;4.51;100.00;103482.09;4871964;29;20581;-66
2022/01/24 02:13:07;;;;;;;11.10;7.95;;;;;;;4.49;100.00;103474.19;4894066;29;20491;-66
2022/01/24 02:16:02;;;;;;;10.00;7.55;;;;;;;4.49;100.00;103482.03;4871808;29;20159;-66
2022/01/24 02:23:37;;;;;;;10.23;7.38;;;;;;;4.45;100.00;103484.56;4893217;29;20052;-66
2022/01/24 02:26:06;;;;;;;11.23;8.18;;;;;;;4.43;100.00;103487.19;4893994;29;20114;-67
2022/01/24 02:29:47;;;;;;;9.05;7.30;;;;;;;4.44;100.00;103485.44;4875679;29;20032;-66
2022/01/24 02:31:41;;;;;;;10.55;7.70;;;;;;;4.43;100.00;103478.41;4886046;29;20415;-67
2022/01/24 02:34:29;;;;;;;10.90;7.72;;;;;;;4.43;100.00;103466.19;4877954;29;20039;-66
2022/01/24 02:37:17;;;;;;;12.38;8.05;;;;;;;4.44;100.00;103473.22;4877559;29;20391;-67
2022/01/24 02:39:58;;;;;;;11.55;7.85;;;;;;;4.43;100.00;103471.44;4886736;29;20579;-66
2022/01/24 02:53:11;;;;;;;14.50;8.65;;;;;;;4.42;100.00;103461.78;4893121;29;20171;-67
2022/01/24 02:55:38;;;;;;;10.32;8.32;;;;;;;4.42;100.00;103469.66;4893415;29;20130;-66
2022/01/24 02:58:04;;;;;;;10.93;8.00;;;;;;;4.43;100.00;103468.81;4870247;29;20063;-66
2022/01/24 03:00:30;;;;;;;11.35;8.05;;;;;;;4.42;100.00;103468.78;4894003;29;20032;-66
2022/01/24 03:02:55;;;;;;;11.85;8.45;;;;;;;4.41;100.00;103467.88;4892243;29;20405;-66
2022/01/24 03:05:21;;;;;;;9.27;7.10;;;;;;;4.42;100.00;103476.66;4893342;29;20036;-66
2022/01/24 03:07:46;;;;;;;11.18;8.48;;;;;;;4.41;100.00;103469.63;4893459;29;20072;-66
2022/01/24 03:10:23;;;;;;;9.70;7.53;;;;;;;4.42;100.00;103474.88;4892607;29;20067;-66
2022/01/24 03:12:58;;;;;;;11.63;8.32;;;;;;;4.41;100.00;103473.13;4893508;29;20036;-66
2022/01/24 03:15:24;;;;;;;12.15;7.97;;;;;;;4.40;100.00;103466.13;4893880;29;20040;-66
2022/01/24 03:17:49;;;;;;;10.95;8.10;;;;;;;4.42;100.00;103471.41;4893026;29;22144;-67
2022/01/24 03:20:15;;;;;;;12.43;8.23;;;;;;;4.42;100.00;103474.88;4893358;29;20068;-67
2022/01/24 03:22:40;;;;;;;13.32;9.20;;;;;;;4.41;100.00;103462.63;4893042;29;20067;-66
2022/01/24 03:25:06;;;;;;;11.63;8.75;;;;;;;4.42;100.00;103459.16;4892528;29;20064;-66
2022/01/24 03:27:31;;;;;;;12.93;8.93;;;;;;;4.41;100.00;103457.38;4893423;29;20040;-66
2022/01/24 03:29:57;;;;;;;11.63;9.07;;;;;;;4.41;100.00;103462.63;4892945;29;20036;-66
2022/01/24 03:32:22;;;;;;;11.75;9.20;;;;;;;4.40;100.00;103455.63;4874667;29;20673;-66
2022/01/24 03:34:48;;;;;;;12.88;9.38;;;;;;;4.40;100.00;103458.25;4893451;29;20044;-66
2022/01/24 03:37:13;;;;;;;13.98;9.40;;;;;;;4.39;100.00;103461.72;4893262;29;20095;-66
2022/01/24 03:39:39;;;;;;;11.82;9.02;;;;;;;4.39;100.00;103459.09;4893021;29;20079;-66
2022/01/24 03:42:05;;;;;;;13.63;8.93;;;;;;;4.39;100.00;103464.34;4892908;29;20040;-66
2022/01/24 03:44:30;;;;;;;13.45;9.50;;;;;;;4.39;100.00;103461.72;4892034;29;20036;-66
2022/01/24 03:52:09;;;;;;;14.02;9.02;;;;;;;4.38;100.00;103467.81;4878924;29;20229;-66
2022/01/24 03:54:35;;;;;;;15.07;10.00;;;;;;;4.39;100.00;103460.81;4894792;29;20036;-66
2022/01/24 03:57:01;;;;;;;13.48;9.05;;;;;;;4.39;100.00;103458.19;4895565;29;20040;-66
2022/01/24 03:59:26;;;;;;;14.57;9.88;;;;;;;4.38;100.00;103456.44;4896623;29;20039;-66
2022/01/24 04:01:52;;;;;;;13.48;9.10;;;;;;;4.37;100.00;103455.56;4894775;29;20040;-66
2022/01/24 04:04:17;;;;;;;16.42;10.30;;;;;;;4.37;100.00;103449.41;4896380;29;20046;-66
2022/01/24 04:06:43;;;;;;;14.57;9.52;;;;;;;4.37;100.00;103450.31;4896141;29;20048;-66
2022/01/24 04:09:08;;;;;;;14.82;9.85;;;;;;;4.36;100.00;103456.38;4895725;29;20052;-66
2022/01/24 04:11:37;;;;;;;14.30;9.68;;;;;;;4.35;100.00;103452.00;4895794;29;20412;-67
2022/01/24 04:14:23;;;;;;;14.23;9.98;;;;;;;4.35;100.00;103446.75;4896207;29;20107;-66
2022/01/24 04:22:18;;;;;;;14.02;9.40;;;;;;;4.34;100.00;103450.22;4896015;29;20079;-66
2022/01/24 04:24:45;;;;;;;14.75;10.02;;;;;;;4.32;100.00;103452.81;4895242;29;20624;-66
2022/01/24 04:27:13;;;;;;;14.77;10.07;;;;;;;4.33;100.00;103456.34;4895601;29;20036;-66
2022/01/24 04:29:39;;;;;;;16.88;10.50;;;;;;;4.32;100.00;103455.44;4895561;29;21586;-66
2022/01/24 04:32:05;;;;;;;16.95;10.52;;;;;;;4.31;100.00;103453.66;4895894;29;20036;-66
2022/01/24 04:34:31;;;;;;;14.43;10.20;;;;;;;4.31;100.00;103456.28;4896434;29;20030;-67
2022/01/24 04:36:57;;;;;;;12.80;9.20;;;;;;;4.30;100.00;103445.78;4895299;29;20040;-66
2022/01/24 04:39:23;;;;;;;13.55;9.63;;;;;;;4.32;100.00;103449.31;4895560;29;20036;-66
2022/01/24 04:41:52;;;;;;;14.23;9.27;;;;;;;4.32;100.00;103451.94;4895170;29;20388;-66
2022/01/24 04:52:49;;;;;;;16.25;10.95;;;;;;;4.31;100.00;103455.44;4895188;29;20048;-66
2022/01/24 04:55:15;;;;;;;15.63;10.90;;;;;;;4.31;100.00;103451.03;4894831;29;20040;-67
2022/01/24 04:57:40;;;;;;;14.55;10.32;;;;;;;4.32;100.00;103446.69;4895374;29;20605;-66
2022/01/24 05:00:09;;;;;;;14.27;10.02;;;;;;;4.34;100.00;103447.59;4879758;29;20044;-66
2022/01/24 05:02:34;;;;;;;15.80;10.18;;;;;;;4.33;100.00;103443.22;4895752;29;20024;-67
2022/01/24 05:05:00;;;;;;;17.65;10.65;;;;;;;4.32;100.00;103436.22;4895218;29;20498;-66
2022/01/24 05:07:26;;;;;;;17.60;10.15;;;;;;;4.31;100.00;103445.78;4895524;29;20040;-66
2022/01/24 05:10:01;;;;;;;15.70;10.43;;;;;;;4.33;100.00;103443.22;4894680;29;20050;-66
2022/01/24 05:21:09;;;;;;;16.15;10.15;;;;;;;4.33;100.00;103443.22;4894715;29;20047;-66
2022/01/24 05:23:35;;;;;;;16.35;10.90;;;;;;;4.32;100.00;103447.56;4894148;29;20590;-66
2022/01/24 05:26:03;;;;;;;17.17;10.65;;;;;;;4.33;100.00;103448.47;4887122;29;20512;-66
2022/01/24 05:28:30;;;;;;;17.30;11.23;;;;;;;4.34;100.00;103439.75;4887646;29;20501;-66
2022/01/24 05:30:56;;;;;;;19.85;11.48;;;;;;;4.32;100.00;103439.69;4894938;29;20042;-66
2022/01/24 05:33:21;;;;;;;18.58;11.32;;;;;;;4.33;100.00;103432.72;4894731;29;20097;-66
2022/01/24 05:35:48;;;;;;;19.60;11.60;;;;;;;4.32;100.00;103429.19;4894907;29;20531;-66
2022/01/24 05:38:13;;;;;;;17.92;11.15;;;;;;;4.32;100.00;103430.97;4870858;29;20032;-66
2022/01/24 05:40:39;;;;;;;16.45;10.60;;;;;;;4.32;100.00;103442.31;4894477;29;20146;-66
2022/01/24 05:43:08;;;;;;;19.88;11.63;;;;;;;4.33;100.00;103435.34;4894737;29;20633;-66
2022/01/24 05:45:34;;;;;;;18.40;11.80;;;;;;;4.32;100.00;103439.69;4894857;29;20554;-66
2022/01/24 05:48:00;;;;;;;18.17;11.90;;;;;;;4.33;100.00;103435.34;4894151;29;20100;-66
2022/01/24 05:50:26;;;;;;;20.63;12.27;;;;;;;4.33;100.00;103437.97;4894581;29;20047;-66
2022/01/24 05:52:52;;;;;;;19.80;11.45;;;;;;;4.30;100.00;103446.66;4893988;29;20811;-66
2022/01/24 05:55:17;;;;;;;21.05;12.63;;;;;;;4.31;100.00;103447.56;4893827;29;20036;-66
2022/01/24 05:57:43;;;;;;;24.27;13.20;;;;;;;4.31;100.00;103451.03;4894405;29;20433;-66
2022/01/24 06:00:11;;;;;;;21.58;12.73;;;;;;;4.32;100.00;103449.31;4892897;29;20504;-67
2022/01/24 06:02:36;;;;;;;20.02;12.38;;;;;;;4.32;100.00;103454.56;4893817;29;20637;-66
2022/01/24 06:05:02;;;;;;;21.55;12.88;;;;;;;4.32;100.00;103452.81;4894185;29;20046;-66
2022/01/24 06:07:28;;;;;;;22.92;12.82;;;;;;;4.31;100.00;103444.94;4892381;29;20619;-66
2022/01/24 06:09:53;;;;;;;21.33;13.38;;;;;;;4.30;100.00;103437.91;4878063;29;20107;-66
2022/01/24 06:12:19;;;;;;;23.83;14.45;;;;;;;4.30;100.00;103448.41;4893912;29;20032;-67
2022/01/24 06:14:45;;;;;;;23.63;13.82;;;;;;;4.30;100.00;103454.53;4894186;29;20036;-66
2022/01/24 06:17:11;;;;;;;24.55;14.45;;;;;;;4.30;100.00;103458.91;4878332;29;20147;-66
2022/01/24 06:19:37;;;;;;;21.67;14.27;;;;;;;4.29;100.00;103457.09;4887020;29;20168;-67
2022/01/24 06:22:03;;;;;;;19.90;12.82;;;;;;;4.28;100.00;103455.34;4893498;29;20063;-66
2022/01/24 06:24:28;;;;;;;21.90;12.88;;;;;;;4.27;100.00;103454.47;4893046;29;21527;-66
2022/01/24 06:26:54;;;;;;;22.52;13.73;;;;;;;4.29;100.00;103462.34;4893442;29;20067;-66
2022/01/24 06:29:19;;;;;;;22.20;13.48;;;;;;;4.27;100.00;103456.19;4871885;29;20127;-66
2022/01/24 06:31:45;;;;;;;19.67;12.60;;;;;;;4.27;100.00;103470.19;4893594;29;22042;-66
2022/01/24 06:34:10;;;;;;;21.23;12.95;;;;;;;4.29;100.00;103472.84;4893834;29;20139;-66
2022/01/24 06:36:36;;;;;;;23.65;14.02;;;;;;;4.28;100.00;103465.81;4893773;29;20055;-66
2022/01/24 06:39:04;;;;;;;21.95;13.70;;;;;;;4.28;100.00;103466.72;4875701;29;20047;-66
2022/01/24 06:41:33;;;;;;;21.13;12.82;;;;;;;4.28;100.00;103473.69;4893267;29;20178;-66
2022/01/24 06:43:59;;;;;;;25.42;14.30;;;;;;;4.27;100.00;103464.06;4893570;29;20040;-66
2022/01/24 06:46:25;;;;;;;21.77;13.73;;;;;;;4.27;100.00;103464.97;4870088;29;20398;-66
2022/01/24 06:48:50;;;;;;;22.67;12.32;;;;;;;4.28;100.00;103465.81;4893883;29;20032;-66
2022/01/24 06:51:18;;;;;;;25.30;14.15;;;;;;;4.27;100.00;103464.06;4893769;29;20043;-66
2022/01/24 06:53:44;;;;;;;23.13;13.85;;;;;;;4.27;100.00;103464.06;4877001;29;20063;-66
2022/01/24 06:56:09;;;;;;;20.35;13.23;;;;;;;4.27;100.00;103466.69;4893424;29;20127;-66
2022/01/24 06:58:35;;;;;;;21.75;13.50;;;;;;;4.27;100.00;103470.19;4894408;29;20471;-67
2022/01/24 07:01:02;;;;;;;24.48;13.95;;;;;;;4.26;100.00;103471.06;4893463;29;20400;-66
2022/01/24 07:03:27;;;;;;;24.15;14.30;;;;;;;4.26;100.00;103468.44;4893713;29;20051;-66
2022/01/24 07:05:53;;;;;;;21.55;13.07;;;;;;;4.26;100.00;103468.44;4893627;29;22171;-67
2022/01/24 07:08:19;;;;;;;21.67;14.32;;;;;;;4.25;100.00;103471.88;4892763;29;20036;-66
2022/01/24 07:10:44;;;;;;;25.83;14.25;;;;;;;4.25;100.00;103469.25;4893077;29;20259;-67
2022/01/24 07:13:10;;;;;;;23.65;13.63;;;;;;;4.27;100.00;103482.41;4893435;29;20032;-66
2022/01/24 07:15:45;;;;;;;26.00;14.75;;;;;;;4.27;100.00;103479.78;4893952;29;20032;-66
2022/01/24 07:20:39;;;;;;;25.88;14.25;;;;;;;4.26;100.00;103478.03;4893636;29;20422;-66
2022/01/24 07:23:05;;;;;;;25.92;14.55;;;;;;;4.27;100.00;103479.78;4861099;29;20028;-66
2022/01/24 07:25:31;;;;;;;26.98;15.55;;;;;;;4.26;100.00;103489.41;4894558;29;20043;-66
2022/01/24 07:27:57;;;;;;;30.33;15.88;;;;;;;4.28;100.00;103481.56;4889659;29;20020;-66
2022/01/24 07:30:23;;;;;;;25.77;15.30;;;;;;;4.28;100.00;103481.56;4896880;29;20032;-66
2022/01/24 07:32:49;;;;;;;28.52;16.98;;;;;;;4.27;100.00;103482.41;4896973;29;20496;-66
2022/01/24 07:35:15;;;;;;;33.42;16.90;;;;;;;4.28;100.00;103478.94;4895381;29;20103;-67
2022/01/24 07:37:40;;;;;;;30.55;17.67;;;;;;;4.29;100.00;103475.47;4897103;29;20564;-66
2022/01/24 07:40:09;;;;;;;32.17;18.35;;;;;;;4.30;100.00;103485.13;4896473;29;20471;-66
2022/01/24 07:42:54;;;;;;;28.70;16.17;;;;;;;4.30;100.00;103483.38;4897437;29;20093;-66
2022/01/24 07:45:22;;;;;;;29.30;16.65;;;;;;;4.30;100.00;103479.88;4896703;29;20047;-66
2022/01/24 07:47:47;;;;;;;29.20;16.92;;;;;;;4.31;100.00;103481.66;4896741;29;20043;-67
2022/01/24 07:50:15;;;;;;;33.92;17.88;;;;;;;4.30;100.00;103482.50;4896489;29;20036;-66
2022/01/24 07:52:40;;;;;;;30.17;16.77;;;;;;;4.30;100.00;103479.88;4896175;29;20054;-66
2022/01/24 07:55:06;;;;;;;30.95;17.45;;;;;;;4.31;100.00;103486.91;4896084;29;20039;-66
2022/01/24 07:57:31;;;;;;;34.95;19.63;;;;;;;4.30;100.00;103490.38;4879603;29;20032;-66
2022/01/24 07:59:57;;;;;;;33.92;19.85;;;;;;;4.30;100.00;103487.75;4896401;29;20531;-67
2022/01/24 08:02:23;;;;;;;34.67;19.05;;;;;;;4.28;100.00;103485.09;4896527;29;20668;-66
2022/01/24 08:04:48;;;;;;;32.83;17.88;;;;;;;4.31;100.00;103484.28;4896726;29;20245;-66
2022/01/24 08:07:14;;;;;;;32.05;18.35;;;;;;;4.30;100.00;103482.50;4895908;29;20032;-66
2022/01/24 08:09:39;;;;;;;27.60;16.60;;;;;;;4.30;100.00;103480.75;4895775;29;20381;-67
2022/01/24 08:12:05;;;;;;;30.55;17.08;;;;;;;4.31;100.00;103486.91;4895926;29;20029;-67
2022/01/24 08:14:31;;;;;;;32.30;18.13;;;;;;;4.30;100.00;103491.25;4896185;29;20904;-66
2022/01/24 08:16:57;;;;;;;29.83;17.55;;;;;;;4.31;100.00;103490.38;4896088;29;20088;-67
2022/01/24 08:19:23;;;;;;;30.13;17.27;;;;;;;4.30;100.00;103483.38;4895949;29;20024;-66
2022/01/24 08:21:48;;;;;;;32.40;18.10;;;;;;;4.31;100.00;103492.16;4895680;29;20044;-66
2022/01/24 08:24:14;;;;;;;34.15;18.67;;;;;;;4.31;100.00;103494.75;4895513;29;20044;-66
2022/01/24 08:26:39;;;;;;;31.58;17.17;;;;;;;4.32;100.00;103500.03;4896327;29;20152;-66
2022/01/24 08:29:05;;;;;;;33.65;18.65;;;;;;;4.32;100.00;103500.03;4895638;29;20542;-66
2022/01/24 08:31:31;;;;;;;34.67;18.77;;;;;;;4.33;100.00;103501.81;4895441;29;20050;-67
2022/01/24 08:33:57;;;;;;;32.78;17.05;;;;;;;4.35;100.00;103514.94;4895888;29;20032;-67
2022/01/24 08:36:23;;;;;;;35.08;19.33;;;;;;;4.33;100.00;103507.06;4894762;29;20660;-66
2022/01/24 08:38:50;;;;;;;37.33;19.80;;;;;;;4.33;100.00;103512.31;4895663;29;20754;-66
2022/01/24 08:41:38;;;;;;;34.63;19.63;;;;;;;4.34;100.00;103505.31;4892987;29;20119;-67
2022/01/24 08:44:18;;;;;;;38.47;19.77;;;;;;;4.35;100.00;103513.22;4894639;29;20048;-67
2022/01/24 08:46:45;;;;;;;38.78;20.33;;;;;;;4.34;100.00;103503.59;4892625;29;20044;-67
2022/01/24 08:49:11;;;;;;;35.40;19.33;;;;;;;4.35;100.00;103507.09;4894568;29;20047;-66
2022/01/24 08:51:36;;;;;;;36.63;19.98;;;;;;;4.35;100.00;103504.47;4877317;29;20036;-66
2022/01/24 08:54:06;;;;;;;35.58;19.95;;;;;;;4.35;100.00;103507.97;4894530;29;20118;-66
2022/01/24 08:56:32;;;;;;;33.53;17.48;;;;;;;4.37;100.00;103512.38;4894885;29;20036;-66
2022/01/24 08:58:58;;;;;;;33.45;19.05;;;;;;;4.37;100.00;103505.41;4863496;29;20812;-66
2022/01/24 09:01:24;;;;;;;35.72;20.25;;;;;;;4.38;100.00;103504.56;4893067;29;20047;-67
2022/01/24 09:03:49;;;;;;;35.55;19.50;;;;;;;4.40;100.00;103502.84;4876571;29;20044;-66
2022/01/24 09:06:17;;;;;;;36.47;19.70;;;;;;;4.40;100.00;103513.34;4895386;29;20368;-66
2022/01/24 09:08:43;;;;;;;35.28;18.90;;;;;;;4.41;100.00;103509.84;4876967;29;20749;-66
2022/01/24 09:11:09;;;;;;;39.25;21.08;;;;;;;4.42;100.00;103516.00;4895012;29;20047;-66
2022/01/24 09:13:34;;;;;;;36.35;20.20;;;;;;;4.43;99.94;103510.78;4895217;29;20032;-66
2022/01/24 09:16:01;;;;;;;37.35;20.42;;;;;;;4.45;99.86;103511.72;4895502;29;20051;-66
2022/01/24 09:18:30;;;;;;;32.88;19.65;;;;;;;4.44;99.82;103515.19;4892396;29;20047;-67
2022/01/24 09:20:56;;;;;;;33.67;18.95;;;;;;;4.46;99.70;103516.09;4876309;29;20056;-66
2022/01/24 09:23:22;;;;;;;34.65;19.40;;;;;;;4.47;99.98;103517.88;4893596;29;20039;-66
2022/01/24 09:25:50;;;;;;;35.45;19.27;;;;;;;4.51;99.66;103520.59;4893488;29;20666;-68
2022/01/24 09:28:16;;;;;;;36.60;20.08;;;;;;;4.53;99.81;103514.50;4894630;29;20036;-68
2022/01/24 09:30:42;;;;;;;40.83;21.00;;;;;;;4.54;100.00;103516.28;4894912;29;20036;-68
2022/01/24 09:33:11;;;;;;;37.35;21.23;;;;;;;4.57;99.89;103512.84;4887501;29;20042;-68
2022/01/24 09:35:38;;;;;;;36.72;20.60;;;;;;;4.59;99.77;103513.75;4893729;29;20043;-67
2022/01/24 09:38:05;;;;;;;38.15;20.15;;;;;;;4.59;99.38;103509.38;4893839;29;20040;-67
2022/01/24 09:40:32;;;;;;;35.40;20.23;;;;;;;4.61;99.69;103512.94;4892218;29;20119;-67
2022/01/24 09:42:58;;;;;;;35.67;19.40;;;;;;;4.63;99.80;103510.34;4893382;29;20535;-67
2022/01/24 09:45:25;;;;;;;35.05;19.38;;;;;;;4.66;99.41;103509.53;4893442;29;20115;-67
2022/01/24 09:47:52;;;;;;;35.40;19.30;;;;;;;4.67;99.66;103509.56;4878899;29;20482;-67
2022/01/24 09:50:19;;;;;;;39.33;20.95;;;;;;;4.69;99.45;103507.84;4874459;29;20041;-67
2022/01/24 09:52:45;;;;;;;32.03;19.08;;;;;;;4.71;99.93;103506.16;4893293;29;20024;-67
2022/01/24 09:55:11;;;;;;;38.08;20.23;;;;;;;4.73;99.60;103503.56;4891841;29;20129;-67
2022/01/24 09:57:37;;;;;;;39.17;22.80;;;;;;;4.74;99.29;103502.72;4893096;29;20427;-67
2022/01/24 10:00:09;;;;;;;35.85;20.67;;;;;;;4.74;99.12;103497.47;4891891;29;20391;-67
2022/01/24 10:02:35;;;;;;;38.17;21.90;;;;;;;4.74;99.65;103505.34;4892675;29;20040;-68
2022/01/24 10:05:17;;;;;;;36.45;20.42;;;;;;;4.77;99.18;103513.28;4891117;29;20578;-68
2022/01/24 10:08:14;;;;;;;38.42;20.33;;;;;;;4.80;99.10;103515.09;4892525;29;20125;-68
2022/01/24 10:10:46;;;;;;;39.38;21.58;;;;;;;4.82;99.25;103518.63;4891530;29;20546;-68
2022/01/24 10:16:30;;;;;;;33.45;19.10;;;;;;;4.83;99.50;103510.78;4891465;29;20442;-67
2022/01/24 10:19:16;;;;;;;33.90;19.65;;;;;;;4.85;99.31;103508.19;4892650;29;20032;-67
2022/01/24 10:21:47;;;;;;;32.58;18.70;;;;;;;4.87;98.92;103514.38;4888126;29;20044;-67
2022/01/24 10:24:30;;;;;;;36.53;20.50;;;;;;;4.88;99.30;103509.16;4892678;29;20032;-67
2022/01/24 10:27:12;;;;;;;34.30;20.02;;;;;;;4.89;98.68;103507.41;4891867;29;20511;-67
2022/01/24 10:29:54;;;;;;;35.05;19.30;;;;;;;4.89;99.11;103504.78;4886565;29;20028;-67
2022/01/24 10:32:48;;;;;;;37.28;20.60;;;;;;;4.92;98.62;103503.94;4892404;29;20095;-67
2022/01/24 10:35:23;;;;;;;33.03;18.42;;;;;;;4.94;99.00;103503.13;4873857;29;20051;-69
2022/01/24 10:37:52;;;;;;;37.15;20.50;;;;;;;4.95;98.43;103507.53;4892540;29;20458;-66
2022/01/24 10:40:46;;;;;;;34.35;20.08;;;;;;;4.96;98.90;103504.03;4889007;29;20503;-66
2022/01/24 10:43:30;;;;;;;35.53;20.35;;;;;;;4.97;98.44;103505.81;4891999;29;20040;-66
2022/01/24 10:45:57;;;;;;;32.42;19.55;;;;;;;4.98;98.62;103506.72;4892318;29;20064;-66
2022/01/24 10:48:25;;;;;;;34.40;19.52;;;;;;;4.99;98.27;103509.38;4875103;29;20051;-66
2022/01/24 10:51:08;;;;;;;37.72;18.92;;;;;;;5.00;98.48;103511.16;4891374;29;20047;-66
2022/01/24 10:53:35;;;;;;;37.80;19.65;;;;;;;5.01;98.29;103506.78;4892280;29;20052;-66
2022/01/24 10:56:01;;;;;;;36.25;20.20;;;;;;;5.01;97.78;103504.16;4889277;29;20095;-66
2022/01/24 10:58:34;;;;;;;35.38;19.70;;;;;;;5.01;98.04;103505.03;4880257;29;20044;-67
2022/01/24 11:00:59;;;;;;;35.13;19.95;;;;;;;5.03;98.10;103508.56;4895060;29;20115;-66
2022/01/24 11:03:25;;;;;;;32.10;18.85;;;;;;;5.05;97.65;103502.50;4889005;29;20111;-66
2022/01/24 11:05:51;;;;;;;33.85;19.83;;;;;;;5.05;97.80;103502.50;4873141;29;20024;-65
2022/01/24 11:08:17;;;;;;;36.13;19.70;;;;;;;5.07;97.78;103500.78;4895413;29;20067;-66
2022/01/24 11:10:49;;;;;;;35.30;20.83;;;;;;;5.07;98.08;103496.38;4872551;29;20656;-66
2022/01/24 11:13:18;;;;;;;36.85;19.83;;;;;;;5.10;97.87;103495.56;4895981;29;20040;-66
2022/01/24 11:15:55;;;;;;;30.65;17.90;;;;;;;5.13;97.83;103503.53;4896414;29;20036;-66
2022/01/24 11:18:21;;;;;;;32.20;19.08;;;;;;;5.13;97.82;103493.88;4894905;29;20047;-66
2022/01/24 11:20:48;;;;;;;33.20;18.98;;;;;;;5.16;97.68;103490.44;4895935;29;20467;-66
2022/01/24 11:23:20;;;;;;;36.20;19.65;;;;;;;5.16;97.38;103491.34;4895421;29;20068;-66
2022/01/24 11:25:47;;;;;;;34.08;19.48;;;;;;;5.19;97.55;103492.25;4877129;29;20498;-66
2022/01/24 11:28:12;;;;;;;33.33;18.77;;;;;;;5.20;97.51;103492.28;4893961;29;20032;-66
2022/01/24 11:30:41;;;;;;;35.78;19.33;;;;;;;5.23;97.28;103488.84;4895184;29;20076;-66
2022/01/24 11:33:17;;;;;;;34.70;18.70;;;;;;;5.24;97.49;103488.84;4895311;29;20040;-66
2022/01/24 11:35:50;;;;;;;34.17;18.52;;;;;;;5.25;97.70;103488.00;4881253;29;20115;-66
2022/01/24 11:38:32;;;;;;;33.28;19.30;;;;;;;5.27;96.98;103488.91;4894318;29;20032;-66
2022/01/24 11:41:05;;;;;;;34.30;19.35;;;;;;;5.30;97.61;103490.72;4894477;29;20048;-66
2022/01/24 11:43:36;;;;;;;34.67;19.05;;;;;;;5.32;97.10;103485.50;4896145;29;20032;-66
2022/01/24 11:46:25;;;;;;;35.15;20.48;;;;;;;5.30;97.19;103485.47;4894772;29;20033;-66
2022/01/24 11:49:05;;;;;;;35.00;20.38;;;;;;;5.30;96.76;103494.22;4895013;29;21659;-66
2022/01/24 11:51:33;;;;;;;39.28;19.77;;;;;;;5.30;96.43;103481.06;4894114;29;20226;-66
2022/01/24 11:53:59;;;;;;;34.70;19.13;;;;;;;5.32;97.02;103480.25;4894806;29;20441;-66
2022/01/24 11:56:27;;;;;;;33.17;19.52;;;;;;;5.34;96.87;103481.16;4871281;29;20036;-67
2022/01/24 11:59:20;;;;;;;38.20;20.58;;;;;;;5.36;96.37;103480.34;4893829;29;20293;-67
2022/01/24 12:01:52;;;;;;;33.53;19.13;;;;;;;5.35;96.67;103481.19;4895845;29;20028;-66
2022/01/24 12:04:56;;;;;;;35.00;20.47;;;;;;;5.35;96.56;103478.56;4876674;29;20055;-65
2022/01/24 12:07:23;;;;;;;;;;;;;;;5.35;96.01;103468.06;4872109;29;20038;-66
2022/01/24 12:09:50;;;;;;;35.97;19.48;;;;;;;5.37;95.80;103478.56;4875937;29;19934;-66
2022/01/24 12:12:39;;;;;;;30.70;18.02;;;;;;;5.37;96.22;103473.31;4895051;29;20119;-66
2022/01/24 12:15:07;;;;;;;34.72;17.98;;;;;;;5.36;95.85;103461.03;4895214;29;20036;-67
2022/01/24 12:17:50;;;;;;;30.58;17.55;;;;;;;5.40;95.99;103462.88;4895412;29;20491;-65
2022/01/24 12:20:48;;;;;;;38.45;19.67;;;;;;;5.40;96.02;103462.88;4894413;29;20036;-65
2022/01/24 12:23:20;;;;;;;35.78;19.55;;;;;;;5.40;95.61;103452.38;4872108;29;20053;-65
2022/01/24 12:26:00;;;;;;;35.47;19.77;;;;;;;5.40;95.77;103449.75;4893770;29;20120;-65
2022/01/24 12:28:27;;;;;;;38.33;20.80;;;;;;;5.39;95.85;103447.97;4894637;29;20270;-65
2022/01/24 12:31:03;;;;;;;39.28;21.40;;;;;;;5.40;95.73;103447.97;4895142;29;20183;-65
2022/01/24 12:33:39;;;;;;;36.97;20.45;;;;;;;5.41;95.66;103449.75;4894974;29;20471;-65
2022/01/24 12:36:09;;;;;;;36.28;18.98;;;;;;;5.40;95.38;103455.00;4894611;29;20075;-65
2022/01/24 12:38:56;;;;;;;36.50;20.25;;;;;;;5.42;95.64;103453.28;4877852;29;20280;-66
2022/01/24 12:41:32;;;;;;;30.42;17.73;;;;;;;5.44;95.39;103448.91;4893782;29;20046;-65
2022/01/24 12:44:12;;;;;;;39.05;20.70;;;;;;;5.43;95.31;103452.41;4893756;29;20075;-65
2022/01/24 12:46:38;;;;;;;37.92;19.70;;;;;;;5.43;94.92;103447.16;4893488;29;20039;-64
2022/01/24 12:49:06;;;;;;;37.08;19.92;;;;;;;5.44;94.83;103451.53;4893674;29;20061;-66
2022/01/24 12:51:35;;;;;;;33.85;19.48;;;;;;;5.45;94.84;103448.06;4893508;29;20040;-66
2022/01/24 12:54:03;;;;;;;36.67;20.05;;;;;;;5.45;95.05;103448.06;4895109;29;20040;-66
2022/01/24 12:56:32;;;;;;;38.53;20.83;;;;;;;5.44;94.65;103441.94;4894377;29;21529;-65
2022/01/24 12:58:58;;;;;;;35.90;19.60;;;;;;;5.45;94.84;103440.16;4892882;29;20047;-66
2022/01/24 13:01:32;;;;;;;40.55;21.17;;;;;;;5.44;94.32;103438.41;4894360;29;20044;-66
2022/01/24 13:04:01;;;;;;;38.65;20.77;;;;;;;5.44;94.18;103438.41;4893364;29;20114;-65
2022/01/24 13:06:29;;;;;;;37.00;20.73;;;;;;;5.41;93.68;103427.88;4893818;29;20071;-66
2022/01/24 13:08:59;;;;;;;37.10;20.35;;;;;;;5.41;93.85;103441.00;4893835;29;20051;-65
2022/01/24 13:11:28;;;;;;;37.58;20.42;;;;;;;5.41;93.94;103435.75;4893592;29;20040;-65
2022/01/24 13:14:13;;;;;;;40.40;21.75;;;;;;;5.41;94.03;103438.38;4894122;29;20130;-65